Time;durP1;ratioP1;P1;durP2;ratioP2;P2;SDS_P1;SDS_P2;PMS_P1;PMS_P2;Temp;Humidity;BMP_temperature;BMP_pressure;BME280_temperature;BME280_humidity;BME280_pressure;Samples;Min_cycle;Max_cycle;Signal;HPM_P1;HPM_P2
2023/01/14 00:03:39;;;;;;;24.87;20.37;;;7.20;84.40;;;;;;10839942;32;20059;-73
2023/01/14 00:09:40;;;;;;;26.58;22.37;;;6.80;84.40;;;;;;10840592;32;20047;-73
2023/01/14 00:15:53;;;;;;;27.85;20.62;;;6.80;84.60;;;;;;10839924;32;20024;-73
2023/01/14 00:21:55;;;;;;;26.35;22.23;;;6.70;84.80;;;;;;10426534;27;11903854;-73
2023/01/14 00:27:57;;;;;;;27.62;23.73;;;6.80;84.70;;;;;;10738701;33;20055;-73
2023/01/14 00:33:59;;;;;;;25.98;21.23;;;6.70;84.70;;;;;;10750901;33;20032;-73
2023/01/14 00:40:01;;;;;;;26.10;22.70;;;6.70;84.60;;;;;;10738409;33;20091;-74
2023/01/14 00:46:08;;;;;;;33.78;28.90;;;6.70;84.80;;;;;;10750206;33;20041;-73
2023/01/14 00:52:10;;;;;;;27.85;21.73;;;6.70;84.50;;;;;;10778394;33;20052;-73
2023/01/14 00:58:12;;;;;;;27.50;20.05;;;6.70;84.20;;;;;;10753210;33;20060;-73
2023/01/14 01:04:17;;;;;;;30.70;25.25;;;6.30;83.90;;;;;;10752940;33;20029;-73
2023/01/14 01:10:19;;;;;;;23.42;19.92;;;6.10;85.00;;;;;;10727538;33;20418;-73
2023/01/14 01:16:43;;;;;;;18.98;16.87;;;6.20;85.00;;;;;;10752780;33;20051;-73
2023/01/14 01:23:08;;;;;;;24.42;20.83;;;6.10;84.70;;;;;;10752521;33;20029;-73
2023/01/14 01:29:32;;;;;;;21.05;17.27;;;6.10;85.20;;;;;;10748691;33;20032;-73
2023/01/14 01:35:34;;;;;;;23.65;18.83;;;6.10;84.70;;;;;;10752210;33;20398;-73
2023/01/14 01:41:36;;;;;;;26.62;22.67;;;6.10;85.00;;;;;;10751969;33;20020;-73
2023/01/14 01:47:38;;;;;;;28.05;21.17;;;6.20;85.00;;;;;;10739840;32;20067;-73
2023/01/14 01:53:44;;;;;;;27.70;23.87;;;6.30;84.70;;;;;;10738487;33;20036;-73
2023/01/14 01:59:52;;;;;;;27.40;24.50;;;6.20;84.60;;;;;;10751648;33;20354;-73
2023/01/14 02:05:55;;;;;;;32.33;25.98;;;6.30;84.30;;;;;;10751293;33;20013;-73
2023/01/14 02:12:17;;;;;;;34.67;27.05;;;6.30;84.10;;;;;;10751353;33;20111;-73
2023/01/14 02:18:59;;;;;;;23.50;18.92;;;6.40;84.00;;;;;;10738342;33;20043;-73
2023/01/14 02:25:43;;;;;;;32.53;23.30;;;6.30;83.80;;;;;;10734226;33;20044;-73
2023/01/14 02:32:03;;;;;;;23.12;19.85;;;6.20;84.00;;;;;;10750880;33;20017;-73
2023/01/14 02:38:20;;;;;;;20.90;18.67;;;6.10;84.00;;;;;;10750765;33;20013;-73
2023/01/14 02:44:43;;;;;;;22.20;17.77;;;5.90;84.00;;;;;;10750426;33;20058;-73
2023/01/14 02:51:07;;;;;;;25.52;19.77;;;5.60;84.40;;;;;;10734171;33;20406;-73
2023/01/14 02:57:44;;;;;;;21.00;18.73;;;5.60;84.50;;;;;;10750295;33;20009;-73
2023/01/14 03:04:09;;;;;;;23.58;19.17;;;5.60;84.80;;;;;;10788521;32;20036;-73
2023/01/14 03:10:25;;;;;;;22.58;20.27;;;5.70;84.80;;;;;;10775388;32;20106;-73
2023/01/14 03:16:46;;;;;;;24.55;18.08;;;5.70;84.50;;;;;;10791322;32;20031;-73
2023/01/14 03:22:50;;;;;;;20.83;16.45;;;5.60;84.50;;;;;;10794474;32;20063;-73
2023/01/14 03:28:54;;;;;;;25.83;21.02;;;5.30;84.80;;;;;;10793983;32;20079;-73
2023/01/14 03:35:25;;;;;;;19.90;15.45;;;5.50;85.10;;;;;;10793999;33;20051;-73
2023/01/14 03:47:53;;;;;;;30.00;24.20;;;5.30;85.00;;;;;;10755173;33;20040;-73
2023/01/14 03:54:21;;;;;;;22.73;17.48;;;5.40;84.90;;;;;;10753645;33;20033;-73
2023/01/14 04:00:38;;;;;;;21.67;18.55;;;5.40;84.50;;;;;;10754994;33;20021;-73
2023/01/14 04:06:41;;;;;;;26.92;20.83;;;5.20;84.80;;;;;;10754688;33;20358;-73
2023/01/14 04:19:05;;;;;;;20.73;16.55;;;5.30;84.80;;;;;;10755579;33;20051;-73
2023/01/14 04:25:07;;;;;;;24.08;19.92;;;5.10;84.60;;;;;;10753534;33;20344;-73
2023/01/14 04:31:09;;;;;;;30.00;21.33;;;5.20;85.00;;;;;;10753798;33;20024;-73
2023/01/14 04:37:11;;;;;;;24.63;20.45;;;5.10;84.80;;;;;;10753777;33;20047;-73
2023/01/14 04:43:13;;;;;;;25.62;22.23;;;5.10;85.10;;;;;;10753739;33;20445;-73
2023/01/14 04:49:15;;;;;;;26.33;23.35;;;5.20;85.00;;;;;;10728054;33;20041;-73
2023/01/14 04:55:18;;;;;;;44.38;29.60;;;5.30;84.70;;;;;;10753202;33;20033;-73
2023/01/14 05:01:20;;;;;;;24.40;21.77;;;5.40;84.70;;;;;;10740242;33;20021;-73
2023/01/14 05:07:22;;;;;;;27.40;20.00;;;5.40;84.50;;;;;;10739738;33;20406;-73
2023/01/14 05:13:24;;;;;;;26.55;21.23;;;5.30;84.60;;;;;;10748956;33;20047;-73
2023/01/14 05:19:26;;;;;;;18.87;15.40;;;5.30;84.70;;;;;;10739732;33;20025;-73
2023/01/14 05:25:31;;;;;;;29.05;22.65;;;5.00;84.40;;;;;;10752350;33;20332;-73
2023/01/14 05:31:33;;;;;;;24.73;20.98;;;5.00;85.00;;;;;;10752167;33;20347;-73
2023/01/14 05:37:35;;;;;;;25.80;20.80;;;5.20;84.70;;;;;;10751794;33;20198;-73
2023/01/14 05:49:58;;;;;;;28.98;21.52;;;5.40;84.90;;;;;;10751905;33;20331;-73
2023/01/14 05:56:00;;;;;;;32.92;26.02;;;5.30;84.70;;;;;;10751684;33;20047;-73
2023/01/14 06:08:22;;;;;;;28.60;23.17;;;5.20;84.50;;;;;;10749117;33;20060;-73
2023/01/14 06:14:24;;;;;;;24.77;20.48;;;5.20;84.40;;;;;;10751274;33;20025;-73
2023/01/14 06:20:26;;;;;;;30.60;24.67;;;5.20;84.30;;;;;;10751051;33;20025;-73
2023/01/14 06:26:33;;;;;;;25.12;19.98;;;5.20;84.30;;;;;;10750889;33;20028;-73
2023/01/14 06:32:35;;;;;;;20.50;18.30;;;5.20;84.30;;;;;;10748904;33;20032;-73
2023/01/14 06:38:37;;;;;;;22.45;18.33;;;5.10;84.10;;;;;;10747270;33;20020;-73
2023/01/14 06:44:39;;;;;;;21.90;18.90;;;4.90;84.50;;;;;;10737482;33;20025;-72
2023/01/14 06:50:44;;;;;;;21.10;18.27;;;4.60;84.80;;;;;;10752868;33;20025;-73
2023/01/14 06:56:47;;;;;;;20.55;18.27;;;4.40;85.00;;;;;;10744374;32;20492;-73
2023/01/14 07:02:49;;;;;;;19.52;16.73;;;4.40;85.50;;;;;;10742615;32;20063;-73
2023/01/14 07:08:51;;;;;;;21.62;18.92;;;4.60;85.20;;;;;;10756324;33;20033;-73
2023/01/14 07:14:53;;;;;;;30.45;24.58;;;4.60;85.10;;;;;;10755384;33;20060;-73
2023/01/14 07:20:56;;;;;;;24.87;18.30;;;4.70;85.10;;;;;;10755697;33;20032;-73
2023/01/14 07:26:59;;;;;;;32.03;25.40;;;4.70;85.10;;;;;;10755571;33;20059;-73
2023/01/14 07:33:01;;;;;;;26.20;23.00;;;4.70;85.10;;;;;;10755666;33;20394;-73
2023/01/14 07:39:05;;;;;;;34.30;27.02;;;4.80;85.10;;;;;;10755470;33;20052;-73
2023/01/14 07:45:08;;;;;;;33.38;26.08;;;5.10;85.10;;;;;;10755311;33;20032;-73
2023/01/14 07:51:12;;;;;;;28.48;23.27;;;5.10;84.90;;;;;;10751498;33;20051;-73
2023/01/14 07:57:14;;;;;;;35.75;30.00;;;5.00;85.00;;;;;;10742662;32;20041;-73
2023/01/14 08:03:15;;;;;;;33.80;25.05;;;5.10;85.20;;;;;;10754457;33;20017;-73
2023/01/14 08:09:18;;;;;;;24.83;20.70;;;5.20;85.10;;;;;;10754609;33;20029;-73
2023/01/14 08:15:19;;;;;;;26.80;23.02;;;5.20;85.10;;;;;;10729002;33;20029;-73
2023/01/14 08:21:21;;;;;;;32.90;26.17;;;5.20;85.30;;;;;;10765083;27;20104;-73
2023/01/14 08:27:26;;;;;;;30.80;21.95;;;5.30;85.30;;;;;;10790463;33;20040;-72
2023/01/14 08:33:28;;;;;;;29.27;23.35;;;5.30;85.30;;;;;;10789580;33;20042;-73
2023/01/14 08:39:30;;;;;;;28.02;20.55;;;5.40;85.40;;;;;;10790149;33;20025;-73
2023/01/14 08:45:32;;;;;;;28.02;18.95;;;5.30;85.40;;;;;;10776488;33;20450;-74
2023/01/14 08:51:40;;;;;;;20.80;16.30;;;5.30;85.50;;;;;;10789716;33;20020;-74
2023/01/14 08:57:42;;;;;;;22.52;17.08;;;5.20;85.50;;;;;;10789735;33;20012;-74
2023/01/14 09:03:45;;;;;;;19.10;14.48;;;5.30;85.80;;;;;;10789268;33;20039;-74
2023/01/14 09:22:36;;;;;;;16.55;11.75;;;5.70;85.80;;;;;;10788524;33;20035;-72
2023/01/14 09:28:38;;;;;;;16.35;12.52;;;5.70;85.90;;;;;;10787628;33;20051;-72
2023/01/14 09:34:52;;;;;;;18.65;14.43;;;5.70;85.90;;;;;;10776404;32;20382;-72
2023/01/14 09:40:55;;;;;;;17.40;14.55;;;5.90;85.80;;;;;;10772302;33;20326;-75
2023/01/14 09:46:57;;;;;;;16.50;14.13;;;5.90;85.60;;;;;;10784555;33;20024;-75
2023/01/14 09:53:04;;;;;;;17.80;11.80;;;6.00;85.50;;;;;;10786813;33;20032;-75
2023/01/14 09:59:30;;;;;;;20.77;13.15;;;6.20;85.60;;;;;;10774540;33;20394;-76
2023/01/14 10:05:36;;;;;;;13.38;9.77;;;6.20;85.60;;;;;;10787352;33;20055;-76
2023/01/14 10:11:42;;;;;;;11.65;8.60;;;6.40;85.70;;;;;;10771701;32;20028;-76
2023/01/14 10:17:55;;;;;;;12.75;9.38;;;6.60;86.00;;;;;;10787369;33;20054;-76
2023/01/14 10:23:58;;;;;;;13.98;11.02;;;6.70;86.10;;;;;;10788816;33;20390;-76
2023/01/14 10:30:23;;;;;;;14.05;11.43;;;6.90;86.20;;;;;;10789136;33;20043;-76
2023/01/14 10:36:30;;;;;;;11.75;8.23;;;7.10;86.00;;;;;;10780256;33;20024;-76
2023/01/14 10:42:32;;;;;;;12.05;8.98;;;7.20;85.80;;;;;;10793644;33;20028;-76
2023/01/14 10:48:45;;;;;;;18.58;13.93;;;7.40;85.50;;;;;;10793200;33;20021;-76
2023/01/14 10:55:12;;;;;;;12.05;8.10;;;7.60;85.30;;;;;;10780067;33;20012;-76
2023/01/14 11:01:14;;;;;;;15.10;11.32;;;7.70;85.30;;;;;;10792174;32;20366;-76
2023/01/14 11:07:30;;;;;;;16.48;12.82;;;7.90;84.80;;;;;;10789024;32;20086;-76
2023/01/14 11:13:44;;;;;;;12.88;9.40;;;8.20;84.50;;;;;;10793777;33;20020;-76
2023/01/14 11:19:46;;;;;;;17.20;11.32;;;8.30;84.20;;;;;;10794640;33;20029;-76
2023/01/14 11:25:49;;;;;;;13.60;9.27;;;8.60;84.10;;;;;;10790940;33;20067;-74
2023/01/14 11:32:15;;;;;;;13.95;11.05;;;8.80;83.80;;;;;;10794743;33;20021;-74
2023/01/14 11:38:21;;;;;;;13.18;9.00;;;9.00;83.50;;;;;;10788763;33;20327;-74
2023/01/14 11:44:25;;;;;;;10.48;6.78;;;9.20;83.70;;;;;;10788584;33;20052;-74
2023/01/14 11:50:36;;;;;;;12.25;7.50;;;9.30;83.20;;;;;;10791210;33;20024;-74
2023/01/14 11:56:40;;;;;;;9.35;7.18;;;9.50;83.00;;;;;;10774873;33;20050;-74
2023/01/14 12:02:50;;;;;;;13.32;7.87;;;9.60;82.70;;;;;;10791475;33;20012;-73
2023/01/14 12:09:00;;;;;;;9.93;7.18;;;9.70;82.50;;;;;;10787709;33;20058;-74
2023/01/14 12:21:56;;;;;;;9.10;7.30;;;9.80;82.00;;;;;;10866875;32;20035;-76
2023/01/14 12:28:10;;;;;;;8.02;6.20;;;9.80;81.80;;;;;;10867858;32;20051;-76
2023/01/14 12:34:33;;;;;;;10.00;6.68;;;9.90;81.70;;;;;;10829033;32;20054;-76
2023/01/14 12:47:03;;;;;;;8.10;6.10;;;10.00;81.70;;;;;;10827491;32;20024;-76
2023/01/14 12:53:06;;;;;;;8.38;6.65;;;10.00;81.80;;;;;;10826507;32;20042;-76
2023/01/14 12:59:24;;;;;;;8.18;6.37;;;10.10;81.60;;;;;;10756012;32;20055;-76
2023/01/14 13:05:41;;;;;;;6.15;4.70;;;10.20;81.40;;;;;;10749115;33;20024;-76
2023/01/14 13:11:47;;;;;;;7.15;4.25;;;10.30;81.30;;;;;;10752989;33;20442;-73
2023/01/14 13:17:57;;;;;;;6.82;4.37;;;10.40;81.20;;;;;;10751417;33;20017;-73
2023/01/14 13:24:34;;;;;;;8.15;4.87;;;10.30;81.20;;;;;;10749140;33;20017;-73
2023/01/14 13:31:14;;;;;;;6.10;3.35;;;10.40;81.20;;;;;;10752590;33;20028;-76
2023/01/14 13:37:17;;;;;;;;;;;10.50;81.00;;;;;;10790845;32;20390;-76
2023/01/14 13:43:49;;;;;;;10.93;5.97;;;10.70;80.40;;;;;;10789834;33;19928;-76
2023/01/14 13:50:03;;;;;;;10.57;7.80;;;10.80;79.80;;;;;;10777075;33;20032;-76
2023/01/14 13:56:05;;;;;;;10.80;6.95;;;11.00;79.80;;;;;;10787838;33;20104;-76
2023/01/14 14:03:01;;;;;;;8.65;5.97;;;11.00;80.00;;;;;;10790519;33;20028;-76
2023/01/14 14:09:31;;;;;;;10.55;5.10;;;10.90;79.80;;;;;;10749464;33;20159;-76
2023/01/14 14:15:51;;;;;;;10.63;6.15;;;10.80;80.20;;;;;;10640734;33;20428;-76
2023/01/14 14:22:09;;;;;;;10.98;6.53;;;11.00;80.30;;;;;;10671313;33;20091;-73
2023/01/14 14:28:18;;;;;;;8.27;5.18;;;11.40;79.50;;;;;;10674537;32;20050;-73
2023/01/14 14:34:23;;;;;;;9.30;5.13;;;11.80;78.70;;;;;;10672670;32;20043;-73
2023/01/14 14:40:34;;;;;;;7.97;5.45;;;11.90;78.00;;;;;;10714287;32;20047;-74
2023/01/14 14:46:36;;;;;;;11.00;6.85;;;12.20;77.40;;;;;;10769187;33;20063;-73
2023/01/14 14:52:38;;;;;;;11.40;6.90;;;12.20;77.00;;;;;;10774199;32;20359;-74
2023/01/14 14:58:43;;;;;;;11.43;7.10;;;11.80;77.60;;;;;;10752693;33;20041;-74
2023/01/14 15:05:31;;;;;;;10.70;6.55;;;11.50;77.50;;;;;;10749893;33;20047;-74
2023/01/14 15:11:43;;;;;;;13.18;5.55;;;11.20;78.30;;;;;;10748129;33;20207;-73
2023/01/14 15:17:47;;;;;;;8.07;4.75;;;11.00;78.80;;;;;;10741502;33;20048;-74
2023/01/14 15:23:53;;;;;;;6.68;3.80;;;11.10;79.30;;;;;;10741217;33;20021;-74
2023/01/14 15:29:56;;;;;;;6.75;3.85;;;11.20;79.40;;;;;;10741286;33;20055;-74
2023/01/14 15:36:03;;;;;;;7.10;3.70;;;10.80;79.70;;;;;;10756432;33;20429;-73
2023/01/14 15:42:07;;;;;;;9.90;4.03;;;10.50;80.40;;;;;;10787745;33;20058;-74
2023/01/14 15:48:14;;;;;;;6.35;3.03;;;10.10;81.00;;;;;;10788110;33;20032;-76
2023/01/14 15:54:34;;;;;;;6.05;3.58;;;9.80;81.50;;;;;;10791690;33;20084;-76
2023/01/14 16:00:45;;;;;;;4.55;2.65;;;9.60;81.90;;;;;;10790321;33;20062;-76
2023/01/14 16:06:52;;;;;;;5.47;3.17;;;9.40;82.20;;;;;;10789009;33;20024;-76
2023/01/14 16:12:55;;;;;;;4.90;3.28;;;9.30;82.40;;;;;;10841895;32;20028;-76
2023/01/14 16:18:57;;;;;;;8.85;5.87;;;9.20;82.60;;;;;;10774089;33;20028;-75
2023/01/14 16:25:00;;;;;;;19.40;5.87;;;9.10;82.80;;;;;;10793262;27;20051;-76
2023/01/14 16:31:02;;;;;;;8.50;5.62;;;9.00;83.00;;;;;;10788393;33;20058;-76
2023/01/14 16:37:04;;;;;;;7.95;4.72;;;8.90;83.10;;;;;;10787870;33;20052;-74
2023/01/14 16:43:09;;;;;;;6.82;4.35;;;8.90;83.10;;;;;;10787607;33;20025;-76
2023/01/14 16:49:11;;;;;;;5.90;3.92;;;8.90;83.10;;;;;;10762445;33;20033;-77
2023/01/14 16:55:24;;;;;;;10.30;4.05;;;8.90;83.20;;;;;;10753061;33;20016;-76
2023/01/14 17:01:26;;;;;;;6.87;3.97;;;8.80;83.30;;;;;;10751403;33;20421;-76
2023/01/14 17:07:28;;;;;;;7.95;4.78;;;8.80;83.40;;;;;;10740034;33;20047;-76
2023/01/14 17:13:30;;;;;;;6.82;3.97;;;8.80;83.60;;;;;;10739853;33;20382;-76
2023/01/14 17:19:32;;;;;;;7.53;4.70;;;8.80;83.60;;;;;;10737790;33;20422;-76
2023/01/14 17:25:34;;;;;;;7.50;4.82;;;8.70;83.80;;;;;;10749938;33;20067;-76
2023/01/14 17:31:36;;;;;;;11.02;4.85;;;8.70;83.80;;;;;;10738610;33;20028;-76
2023/01/14 17:37:39;;;;;;;9.75;6.47;;;8.60;83.90;;;;;;10751666;33;20020;-76
2023/01/14 17:43:41;;;;;;;7.10;4.43;;;8.60;84.10;;;;;;10751964;33;20016;-76
2023/01/14 17:49:44;;;;;;;7.35;4.72;;;8.50;84.10;;;;;;10738825;33;20012;-76
2023/01/14 17:55:46;;;;;;;10.07;7.28;;;8.50;84.20;;;;;;10738802;33;20025;-76
2023/01/14 18:01:48;;;;;;;10.15;7.03;;;8.50;84.20;;;;;;10751530;33;20016;-76
2023/01/14 18:07:51;;;;;;;15.35;9.73;;;8.50;84.30;;;;;;10750397;33;20414;-76
2023/01/14 18:13:53;;;;;;;14.73;11.30;;;8.40;84.40;;;;;;10736319;32;20025;-76
2023/01/14 18:19:56;;;;;;;17.45;10.70;;;8.30;84.70;;;;;;10755100;33;20032;-76
2023/01/14 18:26:02;;;;;;;19.77;14.52;;;8.30;84.90;;;;;;10787476;33;20421;-76
2023/01/14 18:32:05;;;;;;;17.15;13.00;;;8.20;85.20;;;;;;10783431;33;20051;-76
2023/01/14 18:38:07;;;;;;;14.15;11.43;;;8.10;85.40;;;;;;10771429;32;20387;-76
2023/01/14 18:44:09;;;;;;;14.50;11.25;;;8.00;85.20;;;;;;10773682;33;20200;-74
2023/01/14 18:50:11;;;;;;;16.87;12.37;;;7.90;85.40;;;;;;10789716;33;20059;-74
2023/01/14 18:56:16;;;;;;;21.62;16.10;;;7.90;85.40;;;;;;10790526;33;20386;-74
2023/01/14 19:02:18;;;;;;;16.00;12.95;;;7.90;85.40;;;;;;10778019;33;20017;-74
2023/01/14 19:08:20;;;;;;;28.45;16.42;;;7.90;85.40;;;;;;10779637;33;20059;-74
2023/01/14 19:14:22;;;;;;;21.30;15.27;;;7.90;85.40;;;;;;10792724;33;20039;-74
2023/01/14 19:20:26;;;;;;;16.08;14.13;;;7.80;85.60;;;;;;10775158;33;20060;-74
2023/01/14 19:26:29;;;;;;;15.60;12.80;;;7.80;85.90;;;;;;10755990;33;20043;-74
2023/01/14 19:32:31;;;;;;;19.30;14.07;;;7.80;86.00;;;;;;10754513;33;20043;-74
2023/01/14 19:38:33;;;;;;;18.62;14.40;;;7.70;86.00;;;;;;10742368;32;20036;-74
2023/01/14 19:44:35;;;;;;;14.48;11.88;;;7.60;86.00;;;;;;10755402;33;20051;-74
2023/01/14 19:50:37;;;;;;;14.27;9.65;;;7.50;86.30;;;;;;10755154;33;20021;-76
2023/01/14 19:56:40;;;;;;;13.90;9.75;;;7.50;86.20;;;;;;10761925;33;20028;-77
2023/01/14 20:02:43;;;;;;;13.05;8.35;;;7.50;86.00;;;;;;10787810;33;20483;-76
2023/01/14 20:08:45;;;;;;;13.13;8.82;;;7.50;86.00;;;;;;10791291;33;20059;-76
2023/01/14 20:14:47;;;;;;;14.87;9.18;;;7.50;85.80;;;;;;10775632;33;20032;-76
2023/01/14 20:20:57;;;;;;;12.80;8.88;;;7.50;85.90;;;;;;10790925;32;20350;-74
2023/01/14 20:26:59;;;;;;;14.45;11.38;;;7.50;86.00;;;;;;10776923;33;20028;-74
2023/01/14 20:33:02;;;;;;;14.63;9.98;;;7.50;85.90;;;;;;10790122;33;20435;-74
2023/01/14 20:39:04;;;;;;;14.50;11.75;;;7.50;85.80;;;;;;10789212;33;20043;-74
2023/01/14 20:45:08;;;;;;;15.85;12.48;;;7.50;85.70;;;;;;10790031;33;20047;-74
2023/01/14 20:51:15;;;;;;;21.37;13.40;;;7.50;85.70;;;;;;10789929;33;20424;-73
2023/01/14 20:57:17;;;;;;;19.70;14.57;;;7.50;85.80;;;;;;10789967;33;20062;-73
2023/01/14 21:03:19;;;;;;;14.52;12.10;;;7.30;85.80;;;;;;10789801;33;20016;-74
2023/01/14 21:09:21;;;;;;;17.52;13.52;;;7.20;85.90;;;;;;10787937;33;20025;-73
2023/01/14 21:28:06;;;;;;;18.35;14.68;;;7.10;85.90;;;;;;10786462;33;20141;-73
2023/01/14 21:34:08;;;;;;;24.65;21.17;;;7.10;85.80;;;;;;10785153;33;20016;-73
2023/01/14 21:40:12;;;;;;;20.77;15.57;;;7.10;85.80;;;;;;10788702;33;20331;-74
2023/01/14 21:46:35;;;;;;;22.55;17.77;;;7.10;85.80;;;;;;10788438;33;20441;-74
2023/01/14 21:52:37;;;;;;;29.55;21.08;;;7.10;85.80;;;;;;10788377;33;20024;-74
2023/01/14 21:58:40;;;;;;;21.92;18.45;;;7.00;86.10;;;;;;10788083;33;20399;-74
2023/01/14 22:04:43;;;;;;;28.25;21.25;;;7.00;86.20;;;;;;10784196;33;20039;-74
2023/01/14 22:10:46;;;;;;;28.30;21.37;;;6.90;86.10;;;;;;10785817;33;20385;-73
2023/01/14 22:16:48;;;;;;;22.50;18.45;;;6.90;86.00;;;;;;10787736;33;20012;-73
2023/01/14 22:22:50;;;;;;;20.40;16.00;;;6.80;85.90;;;;;;10787444;33;20021;-74
2023/01/14 22:28:52;;;;;;;21.85;16.70;;;6.80;85.80;;;;;;10787474;33;20024;-74
2023/01/14 22:34:54;;;;;;;20.77;17.50;;;6.80;85.80;;;;;;10783639;33;20291;-74
2023/01/14 22:41:04;;;;;;;22.37;17.95;;;6.80;85.80;;;;;;10774095;33;20028;-73
2023/01/14 22:47:06;;;;;;;24.50;20.58;;;6.70;85.70;;;;;;10774619;32;20354;-74
2023/01/14 22:53:08;;;;;;;21.10;16.25;;;6.70;85.90;;;;;;10787082;33;20017;-76
2023/01/14 22:59:11;;;;;;;22.55;17.90;;;6.70;86.00;;;;;;10787366;33;20043;-76
2023/01/14 23:05:13;;;;;;;22.15;17.27;;;6.70;86.00;;;;;;10786874;33;20008;-73
2023/01/14 23:11:17;;;;;;;20.60;15.82;;;6.70;85.90;;;;;;10783793;33;20071;-73
2023/01/14 23:17:29;;;;;;;16.85;14.18;;;6.60;85.90;;;;;;10786450;33;20017;-76
2023/01/14 23:29:51;;;;;;;25.48;18.15;;;6.60;85.80;;;;;;10772965;33;20391;-77
2023/01/14 23:35:53;;;;;;;25.48;21.40;;;6.60;85.80;;;;;;10791633;33;20020;-76
2023/01/14 23:41:55;;;;;;;24.00;19.45;;;6.50;85.80;;;;;;10779255;33;20074;-76
2023/01/14 23:47:57;;;;;;;24.15;18.45;;;6.50;85.90;;;;;;10792150;33;20025;-77
2023/01/14 23:53:59;;;;;;;25.00;18.77;;;6.50;85.80;;;;;;10791935;33;20379;-74
